sensor_id;sensor_type;location;lat;lon;timestamp;P1;durP1;ratioP1;P2;durP2;ratioP2
30505;SDS011;17292;51.600;4.994;2024-02-21T00:39:21;8.68;;;3.20;;
30505;SDS011;17292;51.600;4.994;2024-02-21T00:41:47;10.73;;;3.58;;
30505;SDS011;17292;51.600;4.994;2024-02-21T00:44:13;6.70;;;3.05;;
30505;SDS011;17292;51.600;4.994;2024-02-21T00:46:39;9.52;;;3.50;;
30505;SDS011;17292;51.600;4.994;2024-02-21T00:49:05;7.93;;;3.63;;
30505;SDS011;17292;51.600;4.994;2024-02-21T00:51:32;10.35;;;3.58;;
30505;SDS011;17292;51.600;4.994;2024-02-21T00:53:58;6.32;;;3.35;;
30505;SDS011;17292;51.600;4.994;2024-02-21T00:56:24;9.35;;;2.92;;
30505;SDS011;17292;51.600;4.994;2024-02-21T00:58:50;8.05;;;2.95;;
30505;SDS011;17292;51.600;4.994;2024-02-21T01:01:25;8.15;;;2.95;;
30505;SDS011;17292;51.600;4.994;2024-02-21T01:03:51;8.95;;;2.95;;
30505;SDS011;17292;51.600;4.994;2024-02-21T01:06:19;8.32;;;3.08;;
30505;SDS011;17292;51.600;4.994;2024-02-21T01:08:48;11.27;;;3.20;;
30505;SDS011;17292;51.600;4.994;2024-02-21T01:11:14;7.68;;;3.10;;
30505;SDS011;17292;51.600;4.994;2024-02-21T01:13:41;6.35;;;2.78;;
30505;SDS011;17292;51.600;4.994;2024-02-21T01:16:07;12.90;;;3.20;;
30505;SDS011;17292;51.600;4.994;2024-02-21T01:18:33;7.50;;;3.28;;
30505;SDS011;17292;51.600;4.994;2024-02-21T01:21:00;8.02;;;2.95;;
30505;SDS011;17292;51.600;4.994;2024-02-21T01:23:26;7.50;;;3.17;;
30505;SDS011;17292;51.600;4.994;2024-02-21T01:25:53;6.15;;;2.70;;
30505;SDS011;17292;51.600;4.994;2024-02-21T01:28:20;7.63;;;3.10;;
30505;SDS011;17292;51.600;4.994;2024-02-21T01:30:46;9.80;;;2.97;;
30505;SDS011;17292;51.600;4.994;2024-02-21T01:33:12;10.77;;;3.17;;
30505;SDS011;17292;51.600;4.994;2024-02-21T01:35:39;6.57;;;3.10;;
30505;SDS011;17292;51.600;4.994;2024-02-21T01:38:05;10.75;;;3.15;;
30505;SDS011;17292;51.600;4.994;2024-02-21T01:40:31;8.65;;;2.70;;
30505;SDS011;17292;51.600;4.994;2024-02-21T01:42:57;11.25;;;3.28;;
30505;SDS011;17292;51.600;4.994;2024-02-21T01:45:23;10.30;;;3.38;;
30505;SDS011;17292;51.600;4.994;2024-02-21T01:47:49;9.43;;;3.17;;
30505;SDS011;17292;51.600;4.994;2024-02-21T01:50:15;9.73;;;3.25;;
30505;SDS011;17292;51.600;4.994;2024-02-21T01:52:43;9.80;;;3.22;;
30505;SDS011;17292;51.600;4.994;2024-02-21T01:55:12;8.30;;;2.55;;
30505;SDS011;17292;51.600;4.994;2024-02-21T01:57:42;10.07;;;3.20;;
30505;SDS011;17292;51.600;4.994;2024-02-21T02:00:11;7.28;;;2.40;;
30505;SDS011;17292;51.600;4.994;2024-02-21T02:02:39;7.32;;;2.95;;
30505;SDS011;17292;51.600;4.994;2024-02-21T02:05:07;9.52;;;3.10;;
30505;SDS011;17292;51.600;4.994;2024-02-21T02:07:33;6.93;;;3.30;;
30505;SDS011;17292;51.600;4.994;2024-02-21T02:10:00;7.28;;;2.90;;
30505;SDS011;17292;51.600;4.994;2024-02-21T02:12:26;8.52;;;3.20;;
30505;SDS011;17292;51.600;4.994;2024-02-21T02:15:02;7.00;;;3.15;;
30505;SDS011;17292;51.600;4.994;2024-02-21T02:17:31;9.50;;;3.75;;
30505;SDS011;17292;51.600;4.994;2024-02-21T02:19:58;9.32;;;2.80;;
30505;SDS011;17292;51.600;4.994;2024-02-21T02:22:27;8.63;;;3.22;;
30505;SDS011;17292;51.600;4.994;2024-02-21T02:24:54;7.38;;;2.92;;
30505;SDS011;17292;51.600;4.994;2024-02-21T02:27:20;9.63;;;3.38;;
30505;SDS011;17292;51.600;4.994;2024-02-21T02:29:48;7.85;;;3.13;;
30505;SDS011;17292;51.600;4.994;2024-02-21T02:32:14;9.30;;;3.42;;
30505;SDS011;17292;51.600;4.994;2024-02-21T02:34:41;13.60;;;3.35;;
30505;SDS011;17292;51.600;4.994;2024-02-21T02:37:07;11.13;;;3.10;;
30505;SDS011;17292;51.600;4.994;2024-02-21T02:39:34;7.25;;;3.38;;
30505;SDS011;17292;51.600;4.994;2024-02-21T02:42:00;7.75;;;2.85;;
30505;SDS011;17292;51.600;4.994;2024-02-21T02:44:26;7.63;;;3.42;;
30505;SDS011;17292;51.600;4.994;2024-02-21T02:46:52;8.82;;;3.47;;
30505;SDS011;17292;51.600;4.994;2024-02-21T02:49:18;5.03;;;2.88;;
30505;SDS011;17292;51.600;4.994;2024-02-21T02:51:44;7.65;;;3.33;;
30505;SDS011;17292;51.600;4.994;2024-02-21T02:54:11;6.80;;;2.80;;
30505;SDS011;17292;51.600;4.994;2024-02-21T02:56:37;8.27;;;3.47;;
30505;SDS011;17292;51.600;4.994;2024-02-21T02:59:03;7.60;;;2.70;;
30505;SDS011;17292;51.600;4.994;2024-02-21T03:01:33;6.97;;;3.00;;
30505;SDS011;17292;51.600;4.994;2024-02-21T03:03:59;7.10;;;3.00;;
30505;SDS011;17292;51.600;4.994;2024-02-21T03:06:25;6.72;;;3.17;;
30505;SDS011;17292;51.600;4.994;2024-02-21T03:08:52;7.95;;;2.95;;
30505;SDS011;17292;51.600;4.994;2024-02-21T03:11:20;8.13;;;2.97;;
30505;SDS011;17292;51.600;4.994;2024-02-21T03:13:48;6.68;;;2.83;;
30505;SDS011;17292;51.600;4.994;2024-02-21T03:16:16;6.53;;;2.35;;
30505;SDS011;17292;51.600;4.994;2024-02-21T03:18:43;7.63;;;3.20;;
30505;SDS011;17292;51.600;4.994;2024-02-21T03:21:09;6.70;;;3.15;;
30505;SDS011;17292;51.600;4.994;2024-02-21T03:23:35;7.80;;;3.20;;
30505;SDS011;17292;51.600;4.994;2024-02-21T03:26:01;6.47;;;3.00;;
30505;SDS011;17292;51.600;4.994;2024-02-21T03:28:27;6.28;;;2.90;;
30505;SDS011;17292;51.600;4.994;2024-02-21T03:30:54;8.07;;;3.20;;
30505;SDS011;17292;51.600;4.994;2024-02-21T03:33:20;5.88;;;2.92;;
30505;SDS011;17292;51.600;4.994;2024-02-21T03:35:47;6.50;;;2.50;;
30505;SDS011;17292;51.600;4.994;2024-02-21T03:38:14;8.55;;;2.80;;
30505;SDS011;17292;51.600;4.994;2024-02-21T03:40:40;7.85;;;3.67;;
30505;SDS011;17292;51.600;4.994;2024-02-21T03:43:06;5.70;;;2.67;;
30505;SDS011;17292;51.600;4.994;2024-02-21T03:45:32;7.78;;;3.08;;
30505;SDS011;17292;51.600;4.994;2024-02-21T03:47:58;8.30;;;3.13;;
30505;SDS011;17292;51.600;4.994;2024-02-21T03:50:24;9.80;;;3.47;;
30505;SDS011;17292;51.600;4.994;2024-02-21T03:52:52;6.32;;;2.72;;
30505;SDS011;17292;51.600;4.994;2024-02-21T03:55:18;4.97;;;2.70;;
30505;SDS011;17292;51.600;4.994;2024-02-21T03:57:45;7.63;;;2.80;;
30505;SDS011;17292;51.600;4.994;2024-02-21T04:00:11;6.40;;;2.58;;
30505;SDS011;17292;51.600;4.994;2024-02-21T04:02:37;8.25;;;2.83;;
30505;SDS011;17292;51.600;4.994;2024-02-21T04:05:03;6.10;;;3.15;;
30505;SDS011;17292;51.600;4.994;2024-02-21T04:07:31;5.05;;;2.70;;
30505;SDS011;17292;51.600;4.994;2024-02-21T04:09:57;7.45;;;3.15;;
30505;SDS011;17292;51.600;4.994;2024-02-21T04:12:23;5.13;;;2.65;;
30505;SDS011;17292;51.600;4.994;2024-02-21T04:14:49;8.95;;;2.92;;
30505;SDS011;17292;51.600;4.994;2024-02-21T04:17:15;6.68;;;3.28;;
30505;SDS011;17292;51.600;4.994;2024-02-21T04:19:42;6.47;;;2.97;;
30505;SDS011;17292;51.600;4.994;2024-02-21T04:22:08;8.02;;;2.95;;
30505;SDS011;17292;51.600;4.994;2024-02-21T04:24:34;9.13;;;3.40;;
30505;SDS011;17292;51.600;4.994;2024-02-21T04:27:00;7.88;;;2.83;;
30505;SDS011;17292;51.600;4.994;2024-02-21T04:29:26;7.38;;;3.00;;
30505;SDS011;17292;51.600;4.994;2024-02-21T04:31:53;6.15;;;2.60;;
30505;SDS011;17292;51.600;4.994;2024-02-21T04:34:19;5.05;;;2.92;;
30505;SDS011;17292;51.600;4.994;2024-02-21T04:36:45;6.53;;;2.78;;
30505;SDS011;17292;51.600;4.994;2024-02-21T04:39:12;9.60;;;3.08;;
30505;SDS011;17292;51.600;4.994;2024-02-21T04:41:38;8.05;;;2.70;;
30505;SDS011;17292;51.600;4.994;2024-02-21T04:44:04;7.95;;;3.15;;
30505;SDS011;17292;51.600;4.994;2024-02-21T04:46:30;8.70;;;3.30;;
30505;SDS011;17292;51.600;4.994;2024-02-21T04:48:56;9.23;;;3.08;;
30505;SDS011;17292;51.600;4.994;2024-02-21T04:51:22;8.48;;;3.13;;
30505;SDS011;17292;51.600;4.994;2024-02-21T04:53:48;7.75;;;2.80;;
30505;SDS011;17292;51.600;4.994;2024-02-21T04:56:15;5.22;;;2.90;;
30505;SDS011;17292;51.600;4.994;2024-02-21T04:58:41;6.68;;;2.85;;
30505;SDS011;17292;51.600;4.994;2024-02-21T05:01:07;8.73;;;2.88;;
30505;SDS011;17292;51.600;4.994;2024-02-21T05:03:33;6.03;;;2.55;;
30505;SDS011;17292;51.600;4.994;2024-02-21T05:05:59;6.70;;;2.92;;
30505;SDS011;17292;51.600;4.994;2024-02-21T05:08:26;5.97;;;3.08;;
30505;SDS011;17292;51.600;4.994;2024-02-21T05:10:52;7.60;;;2.90;;
30505;SDS011;17292;51.600;4.994;2024-02-21T05:13:19;7.65;;;3.40;;
30505;SDS011;17292;51.600;4.994;2024-02-21T05:15:45;5.72;;;2.92;;
30505;SDS011;17292;51.600;4.994;2024-02-21T05:18:11;8.10;;;3.20;;
30505;SDS011;17292;51.600;4.994;2024-02-21T05:20:37;7.50;;;3.20;;
30505;SDS011;17292;51.600;4.994;2024-02-21T05:23:03;7.97;;;3.00;;
30505;SDS011;17292;51.600;4.994;2024-02-21T05:25:30;11.68;;;3.50;;
30505;SDS011;17292;51.600;4.994;2024-02-21T05:27:56;6.88;;;3.25;;
30505;SDS011;17292;51.600;4.994;2024-02-21T05:30:26;8.32;;;3.28;;
30505;SDS011;17292;51.600;4.994;2024-02-21T05:32:52;5.40;;;3.05;;
30505;SDS011;17292;51.600;4.994;2024-02-21T05:35:19;7.63;;;3.20;;
30505;SDS011;17292;51.600;4.994;2024-02-21T05:37:46;6.80;;;3.10;;
30505;SDS011;17292;51.600;4.994;2024-02-21T05:40:19;9.15;;;3.25;;
30505;SDS011;17292;51.600;4.994;2024-02-21T05:42:45;6.53;;;3.30;;
30505;SDS011;17292;51.600;4.994;2024-02-21T05:45:11;4.75;;;2.50;;
30505;SDS011;17292;51.600;4.994;2024-02-21T05:47:38;7.18;;;3.22;;
30505;SDS011;17292;51.600;4.994;2024-02-21T05:50:04;9.68;;;3.85;;
30505;SDS011;17292;51.600;4.994;2024-02-21T05:52:30;7.45;;;3.20;;
30505;SDS011;17292;51.600;4.994;2024-02-21T05:54:57;8.13;;;3.50;;
30505;SDS011;17292;51.600;4.994;2024-02-21T05:57:23;7.45;;;2.85;;
30505;SDS011;17292;51.600;4.994;2024-02-21T05:59:49;5.40;;;2.85;;
30505;SDS011;17292;51.600;4.994;2024-02-21T06:02:15;7.45;;;3.10;;
30505;SDS011;17292;51.600;4.994;2024-02-21T06:04:41;4.97;;;2.47;;
30505;SDS011;17292;51.600;4.994;2024-02-21T06:07:08;8.40;;;2.58;;
30505;SDS011;17292;51.600;4.994;2024-02-21T06:09:34;9.32;;;3.03;;
30505;SDS011;17292;51.600;4.994;2024-02-21T06:12:00;5.03;;;2.45;;
30505;SDS011;17292;51.600;4.994;2024-02-21T06:14:26;7.78;;;3.40;;
30505;SDS011;17292;51.600;4.994;2024-02-21T06:16:52;9.38;;;3.08;;
30505;SDS011;17292;51.600;4.994;2024-02-21T06:19:18;9.23;;;3.13;;
30505;SDS011;17292;51.600;4.994;2024-02-21T06:21:45;14.40;;;4.50;;
30505;SDS011;17292;51.600;4.994;2024-02-21T06:24:11;15.00;;;3.70;;
30505;SDS011;17292;51.600;4.994;2024-02-21T06:26:38;15.60;;;4.25;;
30505;SDS011;17292;51.600;4.994;2024-02-21T06:29:05;14.50;;;4.35;;
30505;SDS011;17292;51.600;4.994;2024-02-21T06:31:31;10.60;;;3.78;;
30505;SDS011;17292;51.600;4.994;2024-02-21T06:33:57;11.30;;;3.25;;
30505;SDS011;17292;51.600;4.994;2024-02-21T06:36:24;14.15;;;3.38;;
30505;SDS011;17292;51.600;4.994;2024-02-21T06:38:50;8.20;;;3.05;;
30505;SDS011;17292;51.600;4.994;2024-02-21T06:41:16;10.35;;;3.13;;
30505;SDS011;17292;51.600;4.994;2024-02-21T06:43:44;13.38;;;3.17;;
30505;SDS011;17292;51.600;4.994;2024-02-21T06:46:11;11.27;;;3.50;;
30505;SDS011;17292;51.600;4.994;2024-02-21T06:48:37;17.02;;;3.85;;
30505;SDS011;17292;51.600;4.994;2024-02-21T06:51:03;8.10;;;3.10;;
30505;SDS011;17292;51.600;4.994;2024-02-21T06:53:30;11.38;;;3.50;;
30505;SDS011;17292;51.600;4.994;2024-02-21T06:55:56;14.65;;;3.28;;
30505;SDS011;17292;51.600;4.994;2024-02-21T06:58:23;15.95;;;3.53;;
30505;SDS011;17292;51.600;4.994;2024-02-21T07:00:49;17.27;;;3.92;;
30505;SDS011;17292;51.600;4.994;2024-02-21T07:03:15;11.65;;;3.95;;
30505;SDS011;17292;51.600;4.994;2024-02-21T07:05:41;14.25;;;3.85;;
30505;SDS011;17292;51.600;4.994;2024-02-21T07:08:07;14.35;;;3.92;;
30505;SDS011;17292;51.600;4.994;2024-02-21T07:10:34;13.07;;;3.63;;
30505;SDS011;17292;51.600;4.994;2024-02-21T07:13:00;11.18;;;3.13;;
30505;SDS011;17292;51.600;4.994;2024-02-21T07:15:26;13.48;;;3.95;;
30505;SDS011;17292;51.600;4.994;2024-02-21T07:17:53;14.50;;;3.65;;
30505;SDS011;17292;51.600;4.994;2024-02-21T07:20:19;17.30;;;3.53;;
30505;SDS011;17292;51.600;4.994;2024-02-21T07:22:46;15.20;;;3.58;;
30505;SDS011;17292;51.600;4.994;2024-02-21T07:25:12;16.52;;;3.65;;
30505;SDS011;17292;51.600;4.994;2024-02-21T07:27:38;17.15;;;3.58;;
30505;SDS011;17292;51.600;4.994;2024-02-21T07:30:05;17.25;;;4.00;;
30505;SDS011;17292;51.600;4.994;2024-02-21T07:32:31;10.50;;;3.55;;
30505;SDS011;17292;51.600;4.994;2024-02-21T07:34:57;13.63;;;3.20;;
30505;SDS011;17292;51.600;4.994;2024-02-21T07:37:24;12.18;;;3.47;;
30505;SDS011;17292;51.600;4.994;2024-02-21T07:39:50;9.38;;;3.10;;
30505;SDS011;17292;51.600;4.994;2024-02-21T07:42:16;8.30;;;3.15;;
30505;SDS011;17292;51.600;4.994;2024-02-21T07:44:42;8.60;;;2.72;;
30505;SDS011;17292;51.600;4.994;2024-02-21T07:47:08;10.88;;;3.20;;
30505;SDS011;17292;51.600;4.994;2024-02-21T07:49:41;9.25;;;3.20;;
30505;SDS011;17292;51.600;4.994;2024-02-21T07:52:08;12.75;;;3.30;;
30505;SDS011;17292;51.600;4.994;2024-02-21T07:54:34;11.27;;;3.17;;
30505;SDS011;17292;51.600;4.994;2024-02-21T07:57:02;10.85;;;3.20;;
30505;SDS011;17292;51.600;4.994;2024-02-21T07:59:29;6.53;;;3.13;;
30505;SDS011;17292;51.600;4.994;2024-02-21T08:01:56;10.45;;;2.88;;
30505;SDS011;17292;51.600;4.994;2024-02-21T08:04:23;10.75;;;3.60;;
30505;SDS011;17292;51.600;4.994;2024-02-21T08:06:55;10.68;;;2.60;;
30505;SDS011;17292;51.600;4.994;2024-02-21T08:09:21;7.80;;;2.88;;
30505;SDS011;17292;51.600;4.994;2024-02-21T08:11:48;13.57;;;3.47;;
30505;SDS011;17292;51.600;4.994;2024-02-21T08:14:15;5.78;;;2.60;;
30505;SDS011;17292;51.600;4.994;2024-02-21T08:16:44;12.45;;;3.40;;
30505;SDS011;17292;51.600;4.994;2024-02-21T08:19:10;8.25;;;2.83;;
30505;SDS011;17292;51.600;4.994;2024-02-21T08:21:36;13.68;;;2.97;;
30505;SDS011;17292;51.600;4.994;2024-02-21T08:24:03;9.55;;;3.15;;
30505;SDS011;17292;51.600;4.994;2024-02-21T08:26:29;17.13;;;3.50;;
30505;SDS011;17292;51.600;4.994;2024-02-21T08:28:56;16.23;;;3.45;;
30505;SDS011;17292;51.600;4.994;2024-02-21T08:31:28;17.23;;;3.63;;
30505;SDS011;17292;51.600;4.994;2024-02-21T08:33:59;15.88;;;3.40;;
30505;SDS011;17292;51.600;4.994;2024-02-21T08:36:30;11.18;;;3.30;;
30505;SDS011;17292;51.600;4.994;2024-02-21T08:38:57;21.23;;;3.38;;
30505;SDS011;17292;51.600;4.994;2024-02-21T08:41:23;11.35;;;2.85;;
30505;SDS011;17292;51.600;4.994;2024-02-21T08:43:53;12.65;;;3.30;;
30505;SDS011;17292;51.600;4.994;2024-02-21T08:46:20;9.70;;;2.83;;
30505;SDS011;17292;51.600;4.994;2024-02-21T08:48:46;17.70;;;3.38;;
30505;SDS011;17292;51.600;4.994;2024-02-21T08:51:15;15.68;;;3.53;;
30505;SDS011;17292;51.600;4.994;2024-02-21T08:53:41;12.43;;;3.03;;
30505;SDS011;17292;51.600;4.994;2024-02-21T08:56:08;14.68;;;3.13;;
30505;SDS011;17292;51.600;4.994;2024-02-21T08:58:34;10.30;;;3.30;;
30505;SDS011;17292;51.600;4.994;2024-02-21T09:01:02;6.93;;;3.00;;
30505;SDS011;17292;51.600;4.994;2024-02-21T09:03:30;11.95;;;3.25;;
30505;SDS011;17292;51.600;4.994;2024-02-21T09:05:56;9.30;;;3.42;;
30505;SDS011;17292;51.600;4.994;2024-02-21T09:08:23;15.65;;;3.92;;
30505;SDS011;17292;51.600;4.994;2024-02-21T09:10:49;15.48;;;3.53;;
30505;SDS011;17292;51.600;4.994;2024-02-21T09:13:16;16.40;;;3.50;;
30505;SDS011;17292;51.600;4.994;2024-02-21T09:15:42;7.00;;;3.05;;
30505;SDS011;17292;51.600;4.994;2024-02-21T09:18:08;9.48;;;3.15;;
30505;SDS011;17292;51.600;4.994;2024-02-21T09:20:35;10.10;;;3.13;;
30505;SDS011;17292;51.600;4.994;2024-02-21T09:23:01;8.55;;;3.40;;
30505;SDS011;17292;51.600;4.994;2024-02-21T09:25:27;10.93;;;3.05;;
30505;SDS011;17292;51.600;4.994;2024-02-21T09:27:54;11.90;;;3.47;;
30505;SDS011;17292;51.600;4.994;2024-02-21T09:30:20;10.18;;;3.03;;
30505;SDS011;17292;51.600;4.994;2024-02-21T09:32:46;14.93;;;3.70;;
30505;SDS011;17292;51.600;4.994;2024-02-21T09:35:13;10.40;;;3.38;;
30505;SDS011;17292;51.600;4.994;2024-02-21T09:37:40;10.20;;;2.60;;
30505;SDS011;17292;51.600;4.994;2024-02-21T09:40:06;12.70;;;3.53;;
30505;SDS011;17292;51.600;4.994;2024-02-21T09:42:39;14.38;;;3.78;;
30505;SDS011;17292;51.600;4.994;2024-02-21T09:45:21;12.52;;;3.33;;
30505;SDS011;17292;51.600;4.994;2024-02-21T09:50:33;16.30;;;3.25;;
30505;SDS011;17292;51.600;4.994;2024-02-21T09:53:02;10.70;;;3.20;;
30505;SDS011;17292;51.600;4.994;2024-02-21T09:55:31;12.38;;;3.75;;
30505;SDS011;17292;51.600;4.994;2024-02-21T09:58:01;17.50;;;4.13;;
30505;SDS011;17292;51.600;4.994;2024-02-21T10:00:28;12.52;;;2.90;;
30505;SDS011;17292;51.600;4.994;2024-02-21T10:02:54;11.13;;;3.60;;
30505;SDS011;17292;51.600;4.994;2024-02-21T10:05:20;13.98;;;3.10;;
30505;SDS011;17292;51.600;4.994;2024-02-21T10:07:48;10.05;;;3.00;;
30505;SDS011;17292;51.600;4.994;2024-02-21T10:10:15;13.30;;;3.20;;
30505;SDS011;17292;51.600;4.994;2024-02-21T10:12:47;12.25;;;3.22;;
30505;SDS011;17292;51.600;4.994;2024-02-21T10:15:19;15.95;;;3.63;;
30505;SDS011;17292;51.600;4.994;2024-02-21T10:17:45;9.52;;;2.83;;
30505;SDS011;17292;51.600;4.994;2024-02-21T10:20:11;10.52;;;2.90;;
30505;SDS011;17292;51.600;4.994;2024-02-21T10:22:39;18.83;;;3.00;;
30505;SDS011;17292;51.600;4.994;2024-02-21T10:27:34;17.05;;;3.60;;
30505;SDS011;17292;51.600;4.994;2024-02-21T10:30:00;15.80;;;3.38;;
30505;SDS011;17292;51.600;4.994;2024-02-21T10:32:27;14.30;;;3.53;;
30505;SDS011;17292;51.600;4.994;2024-02-21T10:35:03;17.15;;;3.90;;
30505;SDS011;17292;51.600;4.994;2024-02-21T10:37:30;17.23;;;3.78;;
30505;SDS011;17292;51.600;4.994;2024-02-21T10:40:00;11.90;;;3.47;;
30505;SDS011;17292;51.600;4.994;2024-02-21T10:42:29;17.05;;;2.97;;
30505;SDS011;17292;51.600;4.994;2024-02-21T10:45:00;12.15;;;3.53;;
30505;SDS011;17292;51.600;4.994;2024-02-21T10:47:29;11.27;;;4.13;;
30505;SDS011;17292;51.600;4.994;2024-02-21T10:50:03;11.25;;;3.00;;
30505;SDS011;17292;51.600;4.994;2024-02-21T10:55:10;15.82;;;4.07;;
30505;SDS011;17292;51.600;4.994;2024-02-21T10:57:39;17.10;;;3.28;;
30505;SDS011;17292;51.600;4.994;2024-02-21T11:00:05;14.95;;;3.35;;
30505;SDS011;17292;51.600;4.994;2024-02-21T11:05:05;20.95;;;4.05;;
30505;SDS011;17292;51.600;4.994;2024-02-21T11:07:31;12.20;;;3.38;;
30505;SDS011;17292;51.600;4.994;2024-02-21T11:09:58;17.40;;;3.15;;
30505;SDS011;17292;51.600;4.994;2024-02-21T11:12:25;19.63;;;3.47;;
30505;SDS011;17292;51.600;4.994;2024-02-21T11:14:52;12.52;;;3.38;;
30505;SDS011;17292;51.600;4.994;2024-02-21T11:17:19;24.70;;;3.80;;
30505;SDS011;17292;51.600;4.994;2024-02-21T11:19:52;14.15;;;3.72;;
30505;SDS011;17292;51.600;4.994;2024-02-21T11:22:18;23.05;;;4.05;;
30505;SDS011;17292;51.600;4.994;2024-02-21T11:24:45;14.77;;;3.80;;
30505;SDS011;17292;51.600;4.994;2024-02-21T11:27:12;16.60;;;3.42;;
30505;SDS011;17292;51.600;4.994;2024-02-21T11:29:45;15.63;;;3.33;;
30505;SDS011;17292;51.600;4.994;2024-02-21T11:32:14;19.90;;;3.13;;
30505;SDS011;17292;51.600;4.994;2024-02-21T11:34:40;22.50;;;3.67;;
30505;SDS011;17292;51.600;4.994;2024-02-21T11:37:13;12.35;;;3.17;;
30505;SDS011;17292;51.600;4.994;2024-02-21T11:39:43;14.25;;;3.08;;
30505;SDS011;17292;51.600;4.994;2024-02-21T11:42:10;16.63;;;3.40;;
30505;SDS011;17292;51.600;4.994;2024-02-21T11:44:38;16.52;;;3.45;;
30505;SDS011;17292;51.600;4.994;2024-02-21T11:47:05;15.63;;;3.45;;
30505;SDS011;17292;51.600;4.994;2024-02-21T11:49:36;20.02;;;3.58;;
30505;SDS011;17292;51.600;4.994;2024-02-21T11:52:03;16.75;;;3.72;;
30505;SDS011;17292;51.600;4.994;2024-02-21T11:54:30;19.48;;;3.53;;
30505;SDS011;17292;51.600;4.994;2024-02-21T11:56:56;21.45;;;4.20;;
30505;SDS011;17292;51.600;4.994;2024-02-21T11:59:22;14.45;;;4.53;;
30505;SDS011;17292;51.600;4.994;2024-02-21T12:01:48;16.00;;;4.10;;
30505;SDS011;17292;51.600;4.994;2024-02-21T12:04:17;11.15;;;2.88;;
30505;SDS011;17292;51.600;4.994;2024-02-21T12:06:45;16.38;;;3.45;;
30505;SDS011;17292;51.600;4.994;2024-02-21T12:09:17;14.07;;;3.40;;
30505;SDS011;17292;51.600;4.994;2024-02-21T12:14:09;19.35;;;3.40;;
30505;SDS011;17292;51.600;4.994;2024-02-21T12:16:36;14.43;;;3.88;;
30505;SDS011;17292;51.600;4.994;2024-02-21T12:19:02;13.93;;;3.60;;
30505;SDS011;17292;51.600;4.994;2024-02-21T12:21:35;22.00;;;4.35;;
30505;SDS011;17292;51.600;4.994;2024-02-21T12:24:14;24.17;;;3.83;;
30505;SDS011;17292;51.600;4.994;2024-02-21T12:26:41;14.60;;;3.28;;
30505;SDS011;17292;51.600;4.994;2024-02-21T12:29:07;28.08;;;4.25;;
30505;SDS011;17292;51.600;4.994;2024-02-21T12:31:39;20.15;;;3.50;;
30505;SDS011;17292;51.600;4.994;2024-02-21T12:34:06;13.07;;;3.55;;
30505;SDS011;17292;51.600;4.994;2024-02-21T12:36:35;23.75;;;3.20;;
30505;SDS011;17292;51.600;4.994;2024-02-21T12:39:02;17.88;;;3.70;;
30505;SDS011;17292;51.600;4.994;2024-02-21T12:41:29;12.40;;;3.55;;
30505;SDS011;17292;51.600;4.994;2024-02-21T12:43:57;18.90;;;3.83;;
30505;SDS011;17292;51.600;4.994;2024-02-21T12:46:23;14.60;;;3.20;;
30505;SDS011;17292;51.600;4.994;2024-02-21T12:48:50;14.48;;;3.53;;
30505;SDS011;17292;51.600;4.994;2024-02-21T12:51:16;14.90;;;3.33;;
30505;SDS011;17292;51.600;4.994;2024-02-21T12:53:47;13.15;;;3.58;;
30505;SDS011;17292;51.600;4.994;2024-02-21T12:56:15;16.20;;;3.65;;
30505;SDS011;17292;51.600;4.994;2024-02-21T12:58:41;15.38;;;4.00;;
30505;SDS011;17292;51.600;4.994;2024-02-21T13:01:07;21.13;;;3.50;;
30505;SDS011;17292;51.600;4.994;2024-02-21T13:03:34;15.70;;;3.38;;
30505;SDS011;17292;51.600;4.994;2024-02-21T13:06:00;14.90;;;3.78;;
30505;SDS011;17292;51.600;4.994;2024-02-21T13:08:26;16.02;;;3.83;;
30505;SDS011;17292;51.600;4.994;2024-02-21T13:10:52;19.58;;;3.78;;
30505;SDS011;17292;51.600;4.994;2024-02-21T13:13:18;20.90;;;3.90;;
30505;SDS011;17292;51.600;4.994;2024-02-21T13:15:45;17.63;;;4.13;;
30505;SDS011;17292;51.600;4.994;2024-02-21T13:18:11;14.60;;;3.97;;
30505;SDS011;17292;51.600;4.994;2024-02-21T13:20:38;20.13;;;3.53;;
30505;SDS011;17292;51.600;4.994;2024-02-21T13:23:04;22.30;;;4.32;;
30505;SDS011;17292;51.600;4.994;2024-02-21T13:25:30;20.92;;;3.67;;
30505;SDS011;17292;51.600;4.994;2024-02-21T13:27:56;15.15;;;3.95;;
30505;SDS011;17292;51.600;4.994;2024-02-21T13:30:22;17.13;;;3.70;;
30505;SDS011;17292;51.600;4.994;2024-02-21T13:32:50;16.73;;;3.65;;
30505;SDS011;17292;51.600;4.994;2024-02-21T13:35:16;15.07;;;3.22;;
30505;SDS011;17292;51.600;4.994;2024-02-21T13:37:43;21.45;;;3.58;;
30505;SDS011;17292;51.600;4.994;2024-02-21T13:40:09;15.77;;;4.18;;
30505;SDS011;17292;51.600;4.994;2024-02-21T13:42:39;16.20;;;3.65;;
30505;SDS011;17292;51.600;4.994;2024-02-21T13:45:05;21.13;;;4.15;;
30505;SDS011;17292;51.600;4.994;2024-02-21T13:47:35;23.13;;;3.78;;
30505;SDS011;17292;51.600;4.994;2024-02-21T13:50:04;18.35;;;4.03;;
30505;SDS011;17292;51.600;4.994;2024-02-21T13:52:35;23.13;;;3.58;;
30505;SDS011;17292;51.600;4.994;2024-02-21T13:55:01;19.35;;;4.18;;
30505;SDS011;17292;51.600;4.994;2024-02-21T13:57:28;22.02;;;3.63;;
30505;SDS011;17292;51.600;4.994;2024-02-21T13:59:54;20.90;;;4.25;;
30505;SDS011;17292;51.600;4.994;2024-02-21T14:02:20;18.50;;;3.35;;
30505;SDS011;17292;51.600;4.994;2024-02-21T14:04:46;17.50;;;4.07;;
30505;SDS011;17292;51.600;4.994;2024-02-21T14:07:13;20.95;;;4.32;;
30505;SDS011;17292;51.600;4.994;2024-02-21T14:09:39;16.90;;;4.15;;
30505;SDS011;17292;51.600;4.994;2024-02-21T14:12:05;16.90;;;3.88;;
30505;SDS011;17292;51.600;4.994;2024-02-21T14:14:33;17.10;;;3.45;;
30505;SDS011;17292;51.600;4.994;2024-02-21T14:17:00;28.08;;;3.95;;
30505;SDS011;17292;51.600;4.994;2024-02-21T14:19:26;16.95;;;3.72;;
30505;SDS011;17292;51.600;4.994;2024-02-21T14:21:53;13.38;;;3.33;;
30505;SDS011;17292;51.600;4.994;2024-02-21T14:24:19;20.63;;;3.72;;
30505;SDS011;17292;51.600;4.994;2024-02-21T14:26:45;28.30;;;4.20;;
30505;SDS011;17292;51.600;4.994;2024-02-21T14:29:14;15.88;;;3.13;;
30505;SDS011;17292;51.600;4.994;2024-02-21T14:31:40;26.48;;;4.22;;
30505;SDS011;17292;51.600;4.994;2024-02-21T14:34:06;25.27;;;4.28;;
30505;SDS011;17292;51.600;4.994;2024-02-21T14:36:33;17.30;;;3.45;;
30505;SDS011;17292;51.600;4.994;2024-02-21T14:38:59;16.20;;;3.22;;
30505;SDS011;17292;51.600;4.994;2024-02-21T14:41:25;22.48;;;3.75;;
30505;SDS011;17292;51.600;4.994;2024-02-21T14:43:52;25.00;;;4.32;;
30505;SDS011;17292;51.600;4.994;2024-02-21T14:46:21;16.73;;;3.38;;
30505;SDS011;17292;51.600;4.994;2024-02-21T14:48:47;14.57;;;3.25;;
30505;SDS011;17292;51.600;4.994;2024-02-21T14:51:13;22.95;;;4.45;;
30505;SDS011;17292;51.600;4.994;2024-02-21T14:53:39;17.38;;;3.97;;
30505;SDS011;17292;51.600;4.994;2024-02-21T14:56:07;18.30;;;4.25;;
30505;SDS011;17292;51.600;4.994;2024-02-21T14:58:39;17.42;;;4.07;;
30505;SDS011;17292;51.600;4.994;2024-02-21T15:01:06;24.35;;;3.80;;
30505;SDS011;17292;51.600;4.994;2024-02-21T15:03:33;27.92;;;3.45;;
30505;SDS011;17292;51.600;4.994;2024-02-21T15:05:59;21.45;;;4.20;;
30505;SDS011;17292;51.600;4.994;2024-02-21T15:08:26;19.55;;;3.92;;
30505;SDS011;17292;51.600;4.994;2024-02-21T15:10:53;14.75;;;3.33;;
30505;SDS011;17292;51.600;4.994;2024-02-21T15:13:19;27.17;;;4.53;;
30505;SDS011;17292;51.600;4.994;2024-02-21T15:15:46;13.23;;;3.30;;
30505;SDS011;17292;51.600;4.994;2024-02-21T15:18:13;23.70;;;3.80;;
30505;SDS011;17292;51.600;4.994;2024-02-21T15:20:43;22.02;;;4.22;;
30505;SDS011;17292;51.600;4.994;2024-02-21T15:23:10;22.13;;;4.70;;
30505;SDS011;17292;51.600;4.994;2024-02-21T15:25:36;20.17;;;3.75;;
30505;SDS011;17292;51.600;4.994;2024-02-21T15:28:03;15.95;;;4.07;;
30505;SDS011;17292;51.600;4.994;2024-02-21T15:30:32;27.02;;;4.60;;